sim
Sign-in with your pilot id or email,
or register
Callsign
Passwort

Schedule Details

Flight Number: OEO4682
Departure: Hannover Langenhagen Airport (EDDV) at 12:35
Arrival: Paris Charles de Gaulle Airport (LFPG) at 14:05

Weather Information
Getting current METAR information for EDDV 251750Z 35010KT 9999 FEW030 BKN035 13/07 Q1033 NOSIG
Getting current METAR information for LFPG 251800Z AUTO 04010KT CAVOK 22/10 Q1033 NOSIG

Schedule Frequency

Route Map